sensor_id;sensor_type;location;lat;lon;timestamp;P1;durP1;ratioP1;P2;durP2;ratioP2
76194;SDS011;64964;48.694;21.206;2023-12-29T00:02:19;22.63;;;12.23;;
76194;SDS011;64964;48.694;21.206;2023-12-29T00:04:44;23.57;;;12.13;;
76194;SDS011;64964;48.694;21.206;2023-12-29T00:07:10;24.77;;;13.07;;
76194;SDS011;64964;48.694;21.206;2023-12-29T00:09:36;26.25;;;12.98;;
76194;SDS011;64964;48.694;21.206;2023-12-29T00:12:06;27.15;;;12.88;;
76194;SDS011;64964;48.694;21.206;2023-12-29T00:14:33;28.17;;;13.32;;
76194;SDS011;64964;48.694;21.206;2023-12-29T00:16:58;23.67;;;13.60;;
76194;SDS011;64964;48.694;21.206;2023-12-29T00:19:24;29.85;;;14.02;;
76194;SDS011;64964;48.694;21.206;2023-12-29T00:21:50;25.20;;;13.48;;
76194;SDS011;64964;48.694;21.206;2023-12-29T00:24:15;30.13;;;13.43;;
76194;SDS011;64964;48.694;21.206;2023-12-29T00:26:42;29.23;;;13.52;;
76194;SDS011;64964;48.694;21.206;2023-12-29T00:29:07;25.47;;;13.17;;
76194;SDS011;64964;48.694;21.206;2023-12-29T00:31:33;30.80;;;14.40;;
76194;SDS011;64964;48.694;21.206;2023-12-29T00:33:58;28.13;;;14.07;;
76194;SDS011;64964;48.694;21.206;2023-12-29T00:36:23;28.55;;;13.77;;
76194;SDS011;64964;48.694;21.206;2023-12-29T00:38:49;27.40;;;13.60;;
76194;SDS011;64964;48.694;21.206;2023-12-29T00:41:14;27.33;;;14.23;;
76194;SDS011;64964;48.694;21.206;2023-12-29T00:43:40;27.50;;;13.70;;
76194;SDS011;64964;48.694;21.206;2023-12-29T00:46:05;30.90;;;15.03;;
76194;SDS011;64964;48.694;21.206;2023-12-29T00:48:31;29.47;;;15.23;;
76194;SDS011;64964;48.694;21.206;2023-12-29T00:50:57;31.00;;;14.77;;
76194;SDS011;64964;48.694;21.206;2023-12-29T00:53:22;37.67;;;16.27;;
76194;SDS011;64964;48.694;21.206;2023-12-29T00:55:48;35.80;;;16.83;;
76194;SDS011;64964;48.694;21.206;2023-12-29T00:58:13;33.63;;;16.80;;
76194;SDS011;64964;48.694;21.206;2023-12-29T01:00:38;35.70;;;17.10;;
76194;SDS011;64964;48.694;21.206;2023-12-29T01:03:04;31.13;;;15.63;;
76194;SDS011;64964;48.694;21.206;2023-12-29T01:05:29;28.77;;;15.23;;
76194;SDS011;64964;48.694;21.206;2023-12-29T01:07:55;32.30;;;14.93;;
76194;SDS011;64964;48.694;21.206;2023-12-29T01:10:20;29.07;;;14.77;;
76194;SDS011;64964;48.694;21.206;2023-12-29T01:12:46;30.53;;;15.37;;
76194;SDS011;64964;48.694;21.206;2023-12-29T01:15:11;34.47;;;15.32;;
76194;SDS011;64964;48.694;21.206;2023-12-29T01:17:37;32.50;;;15.33;;
76194;SDS011;64964;48.694;21.206;2023-12-29T01:20:02;29.80;;;15.13;;
76194;SDS011;64964;48.694;21.206;2023-12-29T01:22:29;30.75;;;14.85;;
76194;SDS011;64964;48.694;21.206;2023-12-29T01:24:54;31.17;;;14.57;;
76194;SDS011;64964;48.694;21.206;2023-12-29T01:27:20;35.67;;;15.97;;
76194;SDS011;64964;48.694;21.206;2023-12-29T01:29:45;35.53;;;15.88;;
76194;SDS011;64964;48.694;21.206;2023-12-29T01:32:11;35.23;;;14.83;;
76194;SDS011;64964;48.694;21.206;2023-12-29T01:34:36;32.90;;;15.47;;
76194;SDS011;64964;48.694;21.206;2023-12-29T01:37:02;34.50;;;15.27;;
76194;SDS011;64964;48.694;21.206;2023-12-29T01:39:28;35.95;;;15.13;;
76194;SDS011;64964;48.694;21.206;2023-12-29T01:41:58;37.95;;;16.13;;
76194;SDS011;64964;48.694;21.206;2023-12-29T01:44:23;34.23;;;15.13;;
76194;SDS011;64964;48.694;21.206;2023-12-29T01:46:59;40.23;;;16.17;;
76194;SDS011;64964;48.694;21.206;2023-12-29T01:49:26;36.97;;;15.30;;
76194;SDS011;64964;48.694;21.206;2023-12-29T01:51:56;34.25;;;15.05;;
76194;SDS011;64964;48.694;21.206;2023-12-29T01:54:23;33.20;;;14.93;;
76194;SDS011;64964;48.694;21.206;2023-12-29T01:56:51;32.42;;;14.63;;
76194;SDS011;64964;48.694;21.206;2023-12-29T01:59:20;30.33;;;14.40;;
76194;SDS011;64964;48.694;21.206;2023-12-29T02:01:46;32.15;;;14.52;;
76194;SDS011;64964;48.694;21.206;2023-12-29T02:04:12;29.40;;;14.27;;
76194;SDS011;64964;48.694;21.206;2023-12-29T02:06:38;31.73;;;14.10;;
76194;SDS011;64964;48.694;21.206;2023-12-29T02:09:04;31.88;;;14.55;;
76194;SDS011;64964;48.694;21.206;2023-12-29T02:11:30;33.00;;;15.13;;
76194;SDS011;64964;48.694;21.206;2023-12-29T02:13:57;32.38;;;14.82;;
76194;SDS011;64964;48.694;21.206;2023-12-29T02:22:05;36.45;;;15.85;;
76194;SDS011;64964;48.694;21.206;2023-12-29T02:24:31;34.27;;;14.53;;
76194;SDS011;64964;48.694;21.206;2023-12-29T02:27:02;36.08;;;16.15;;
76194;SDS011;64964;48.694;21.206;2023-12-29T02:29:29;31.05;;;14.73;;
76194;SDS011;64964;48.694;21.206;2023-12-29T02:31:58;33.80;;;15.07;;
76194;SDS011;64964;48.694;21.206;2023-12-29T02:34:24;35.05;;;16.05;;
76194;SDS011;64964;48.694;21.206;2023-12-29T02:36:52;32.67;;;15.17;;
76194;SDS011;64964;48.694;21.206;2023-12-29T02:39:19;34.65;;;16.13;;
76194;SDS011;64964;48.694;21.206;2023-12-29T02:41:45;38.05;;;15.05;;
76194;SDS011;64964;48.694;21.206;2023-12-29T02:44:11;37.93;;;15.47;;
76194;SDS011;64964;48.694;21.206;2023-12-29T02:46:37;35.00;;;15.05;;
76194;SDS011;64964;48.694;21.206;2023-12-29T02:49:02;35.13;;;15.07;;
76194;SDS011;64964;48.694;21.206;2023-12-29T02:51:27;32.67;;;15.47;;
76194;SDS011;64964;48.694;21.206;2023-12-29T02:53:53;33.77;;;15.40;;
76194;SDS011;64964;48.694;21.206;2023-12-29T02:56:18;31.08;;;14.68;;
76194;SDS011;64964;48.694;21.206;2023-12-29T02:58:43;33.30;;;15.67;;
76194;SDS011;64964;48.694;21.206;2023-12-29T03:01:11;37.67;;;16.33;;
76194;SDS011;64964;48.694;21.206;2023-12-29T03:03:36;34.03;;;15.60;;
76194;SDS011;64964;48.694;21.206;2023-12-29T03:06:04;34.45;;;16.13;;
76194;SDS011;64964;48.694;21.206;2023-12-29T03:08:30;35.45;;;16.00;;
76194;SDS011;64964;48.694;21.206;2023-12-29T03:10:56;32.03;;;15.03;;
76194;SDS011;64964;48.694;21.206;2023-12-29T03:13:21;36.47;;;16.00;;
76194;SDS011;64964;48.694;21.206;2023-12-29T03:15:47;38.63;;;16.37;;
76194;SDS011;64964;48.694;21.206;2023-12-29T03:18:12;35.23;;;16.70;;
76194;SDS011;64964;48.694;21.206;2023-12-29T03:20:38;33.07;;;15.73;;
76194;SDS011;64964;48.694;21.206;2023-12-29T03:23:03;35.93;;;15.33;;
76194;SDS011;64964;48.694;21.206;2023-12-29T03:25:28;36.60;;;15.75;;
76194;SDS011;64964;48.694;21.206;2023-12-29T03:27:54;38.43;;;15.70;;
76194;SDS011;64964;48.694;21.206;2023-12-29T03:30:19;37.73;;;16.40;;
76194;SDS011;64964;48.694;21.206;2023-12-29T03:32:44;42.10;;;16.30;;
76194;SDS011;64964;48.694;21.206;2023-12-29T03:35:10;34.73;;;15.80;;
76194;SDS011;64964;48.694;21.206;2023-12-29T03:37:35;37.60;;;16.33;;
76194;SDS011;64964;48.694;21.206;2023-12-29T03:40:01;35.22;;;16.52;;
76194;SDS011;64964;48.694;21.206;2023-12-29T03:42:26;34.10;;;16.10;;
76194;SDS011;64964;48.694;21.206;2023-12-29T03:44:51;33.00;;;16.80;;
76194;SDS011;64964;48.694;21.206;2023-12-29T03:47:17;34.47;;;17.23;;
76194;SDS011;64964;48.694;21.206;2023-12-29T03:49:42;34.10;;;16.27;;
76194;SDS011;64964;48.694;21.206;2023-12-29T03:52:08;37.07;;;18.73;;
76194;SDS011;64964;48.694;21.206;2023-12-29T03:54:33;33.77;;;16.73;;
76194;SDS011;64964;48.694;21.206;2023-12-29T03:56:58;32.80;;;16.03;;
76194;SDS011;64964;48.694;21.206;2023-12-29T03:59:24;31.33;;;15.83;;
76194;SDS011;64964;48.694;21.206;2023-12-29T04:01:49;31.70;;;16.00;;
76194;SDS011;64964;48.694;21.206;2023-12-29T04:04:14;33.73;;;15.47;;
76194;SDS011;64964;48.694;21.206;2023-12-29T04:06:40;30.87;;;15.33;;
76194;SDS011;64964;48.694;21.206;2023-12-29T04:09:05;30.87;;;15.27;;
76194;SDS011;64964;48.694;21.206;2023-12-29T04:11:31;32.50;;;16.43;;
76194;SDS011;64964;48.694;21.206;2023-12-29T04:13:56;33.30;;;17.08;;
76194;SDS011;64964;48.694;21.206;2023-12-29T04:16:21;33.13;;;15.50;;
76194;SDS011;64964;48.694;21.206;2023-12-29T04:18:47;30.80;;;15.80;;
76194;SDS011;64964;48.694;21.206;2023-12-29T04:21:15;29.33;;;16.10;;
76194;SDS011;64964;48.694;21.206;2023-12-29T04:23:40;27.48;;;15.02;;
76194;SDS011;64964;48.694;21.206;2023-12-29T04:26:09;30.75;;;15.50;;
76194;SDS011;64964;48.694;21.206;2023-12-29T04:28:34;30.20;;;15.07;;
76194;SDS011;64964;48.694;21.206;2023-12-29T04:30:59;27.77;;;14.87;;
76194;SDS011;64964;48.694;21.206;2023-12-29T04:33:25;31.57;;;15.30;;
76194;SDS011;64964;48.694;21.206;2023-12-29T04:35:51;31.83;;;15.23;;
76194;SDS011;64964;48.694;21.206;2023-12-29T04:38:16;31.23;;;14.65;;
76194;SDS011;64964;48.694;21.206;2023-12-29T04:40:43;33.97;;;16.38;;
76194;SDS011;64964;48.694;21.206;2023-12-29T04:43:08;36.03;;;15.13;;
76194;SDS011;64964;48.694;21.206;2023-12-29T04:45:34;31.13;;;14.90;;
76194;SDS011;64964;48.694;21.206;2023-12-29T04:47:59;34.10;;;16.00;;
76194;SDS011;64964;48.694;21.206;2023-12-29T04:50:24;30.60;;;14.13;;
76194;SDS011;64964;48.694;21.206;2023-12-29T04:52:50;32.57;;;15.40;;
76194;SDS011;64964;48.694;21.206;2023-12-29T04:55:15;35.40;;;15.83;;
76194;SDS011;64964;48.694;21.206;2023-12-29T04:57:41;34.93;;;15.43;;
76194;SDS011;64964;48.694;21.206;2023-12-29T05:00:06;33.63;;;15.35;;
76194;SDS011;64964;48.694;21.206;2023-12-29T05:02:32;33.73;;;15.63;;
76194;SDS011;64964;48.694;21.206;2023-12-29T05:04:57;35.88;;;16.33;;
76194;SDS011;64964;48.694;21.206;2023-12-29T05:07:23;31.23;;;13.43;;
76194;SDS011;64964;48.694;21.206;2023-12-29T05:09:49;28.42;;;13.45;;
76194;SDS011;64964;48.694;21.206;2023-12-29T05:12:14;30.50;;;13.80;;
76194;SDS011;64964;48.694;21.206;2023-12-29T05:14:40;30.90;;;13.93;;
76194;SDS011;64964;48.694;21.206;2023-12-29T05:17:05;33.87;;;14.57;;
76194;SDS011;64964;48.694;21.206;2023-12-29T05:19:31;30.73;;;13.67;;
76194;SDS011;64964;48.694;21.206;2023-12-29T05:21:56;29.73;;;13.93;;
76194;SDS011;64964;48.694;21.206;2023-12-29T05:24:22;28.73;;;13.25;;
76194;SDS011;64964;48.694;21.206;2023-12-29T05:26:47;28.17;;;13.50;;
76194;SDS011;64964;48.694;21.206;2023-12-29T05:29:12;27.97;;;13.67;;
76194;SDS011;64964;48.694;21.206;2023-12-29T05:31:38;29.67;;;14.40;;
76194;SDS011;64964;48.694;21.206;2023-12-29T05:34:03;26.70;;;13.63;;
76194;SDS011;64964;48.694;21.206;2023-12-29T05:36:29;30.13;;;13.52;;
76194;SDS011;64964;48.694;21.206;2023-12-29T05:38:55;31.00;;;13.27;;
76194;SDS011;64964;48.694;21.206;2023-12-29T05:41:21;25.73;;;12.40;;
76194;SDS011;64964;48.694;21.206;2023-12-29T05:43:46;25.30;;;12.07;;
76194;SDS011;64964;48.694;21.206;2023-12-29T05:46:12;29.47;;;14.23;;
76194;SDS011;64964;48.694;21.206;2023-12-29T05:48:38;26.92;;;13.63;;
76194;SDS011;64964;48.694;21.206;2023-12-29T05:51:07;28.23;;;13.30;;
76194;SDS011;64964;48.694;21.206;2023-12-29T05:53:34;32.50;;;13.48;;
76194;SDS011;64964;48.694;21.206;2023-12-29T05:55:59;29.63;;;14.53;;
76194;SDS011;64964;48.694;21.206;2023-12-29T05:58:24;30.70;;;13.53;;
76194;SDS011;64964;48.694;21.206;2023-12-29T06:00:50;29.60;;;14.17;;
76194;SDS011;64964;48.694;21.206;2023-12-29T06:03:15;30.70;;;13.80;;
76194;SDS011;64964;48.694;21.206;2023-12-29T06:05:40;32.20;;;15.07;;
76194;SDS011;64964;48.694;21.206;2023-12-29T06:08:06;32.63;;;14.55;;
76194;SDS011;64964;48.694;21.206;2023-12-29T06:10:32;34.28;;;16.42;;
76194;SDS011;64964;48.694;21.206;2023-12-29T06:12:58;36.97;;;16.23;;
76194;SDS011;64964;48.694;21.206;2023-12-29T06:15:23;33.47;;;14.30;;
76194;SDS011;64964;48.694;21.206;2023-12-29T06:17:48;38.20;;;16.40;;
76194;SDS011;64964;48.694;21.206;2023-12-29T06:20:14;34.17;;;16.00;;
76194;SDS011;64964;48.694;21.206;2023-12-29T06:22:39;32.40;;;15.87;;
76194;SDS011;64964;48.694;21.206;2023-12-29T06:25:11;33.85;;;14.88;;
76194;SDS011;64964;48.694;21.206;2023-12-29T06:27:37;31.07;;;13.57;;
76194;SDS011;64964;48.694;21.206;2023-12-29T06:30:04;31.50;;;14.68;;
76194;SDS011;64964;48.694;21.206;2023-12-29T06:32:30;29.52;;;13.75;;
76194;SDS011;64964;48.694;21.206;2023-12-29T06:34:56;31.53;;;14.40;;
76194;SDS011;64964;48.694;21.206;2023-12-29T06:37:21;31.13;;;14.30;;
76194;SDS011;64964;48.694;21.206;2023-12-29T06:39:47;32.13;;;12.90;;
76194;SDS011;64964;48.694;21.206;2023-12-29T06:42:12;30.03;;;13.90;;
76194;SDS011;64964;48.694;21.206;2023-12-29T06:44:38;31.97;;;13.63;;
76194;SDS011;64964;48.694;21.206;2023-12-29T06:47:03;31.63;;;13.57;;
76194;SDS011;64964;48.694;21.206;2023-12-29T06:49:30;31.90;;;14.40;;
76194;SDS011;64964;48.694;21.206;2023-12-29T06:51:56;31.10;;;13.77;;
76194;SDS011;64964;48.694;21.206;2023-12-29T06:54:22;30.00;;;13.67;;
76194;SDS011;64964;48.694;21.206;2023-12-29T06:56:47;32.65;;;13.02;;
76194;SDS011;64964;48.694;21.206;2023-12-29T06:59:13;27.93;;;13.13;;
76194;SDS011;64964;48.694;21.206;2023-12-29T07:01:39;32.65;;;14.52;;
76194;SDS011;64964;48.694;21.206;2023-12-29T07:04:07;29.55;;;13.52;;
76194;SDS011;64964;48.694;21.206;2023-12-29T07:06:35;32.13;;;13.68;;
76194;SDS011;64964;48.694;21.206;2023-12-29T07:09:01;32.35;;;14.20;;
76194;SDS011;64964;48.694;21.206;2023-12-29T07:11:28;29.97;;;13.07;;
76194;SDS011;64964;48.694;21.206;2023-12-29T07:13:53;26.63;;;12.88;;
76194;SDS011;64964;48.694;21.206;2023-12-29T07:16:19;25.20;;;12.23;;
76194;SDS011;64964;48.694;21.206;2023-12-29T07:18:45;31.52;;;12.88;;
76194;SDS011;64964;48.694;21.206;2023-12-29T07:21:11;29.08;;;12.85;;
76194;SDS011;64964;48.694;21.206;2023-12-29T07:23:37;29.80;;;12.88;;
76194;SDS011;64964;48.694;21.206;2023-12-29T07:26:03;29.90;;;12.93;;
76194;SDS011;64964;48.694;21.206;2023-12-29T07:28:29;29.98;;;12.75;;
76194;SDS011;64964;48.694;21.206;2023-12-29T07:30:54;31.17;;;13.27;;
76194;SDS011;64964;48.694;21.206;2023-12-29T07:33:19;28.93;;;13.60;;
76194;SDS011;64964;48.694;21.206;2023-12-29T07:35:45;32.03;;;14.13;;
76194;SDS011;64964;48.694;21.206;2023-12-29T07:38:10;32.63;;;14.33;;
76194;SDS011;64964;48.694;21.206;2023-12-29T07:40:36;29.23;;;13.20;;
76194;SDS011;64964;48.694;21.206;2023-12-29T07:43:01;30.00;;;14.03;;
76194;SDS011;64964;48.694;21.206;2023-12-29T07:45:26;33.25;;;14.82;;
76194;SDS011;64964;48.694;21.206;2023-12-29T07:47:52;29.40;;;13.83;;
76194;SDS011;64964;48.694;21.206;2023-12-29T07:50:17;29.80;;;13.43;;
76194;SDS011;64964;48.694;21.206;2023-12-29T07:52:43;33.37;;;14.10;;
76194;SDS011;64964;48.694;21.206;2023-12-29T07:55:09;29.65;;;14.15;;
76194;SDS011;64964;48.694;21.206;2023-12-29T07:57:34;29.60;;;13.70;;
76194;SDS011;64964;48.694;21.206;2023-12-29T08:00:00;28.63;;;14.10;;
76194;SDS011;64964;48.694;21.206;2023-12-29T08:02:26;30.33;;;13.43;;
76194;SDS011;64964;48.694;21.206;2023-12-29T08:04:52;25.52;;;12.35;;
76194;SDS011;64964;48.694;21.206;2023-12-29T08:07:19;30.57;;;14.20;;
76194;SDS011;64964;48.694;21.206;2023-12-29T08:09:44;26.75;;;12.52;;
76194;SDS011;64964;48.694;21.206;2023-12-29T08:12:10;31.80;;;13.40;;
76194;SDS011;64964;48.694;21.206;2023-12-29T08:14:35;28.53;;;13.67;;
76194;SDS011;64964;48.694;21.206;2023-12-29T08:17:01;29.17;;;13.52;;
76194;SDS011;64964;48.694;21.206;2023-12-29T08:19:26;33.17;;;14.67;;
76194;SDS011;64964;48.694;21.206;2023-12-29T08:21:52;34.10;;;14.10;;
76194;SDS011;64964;48.694;21.206;2023-12-29T08:24:18;29.23;;;14.30;;
76194;SDS011;64964;48.694;21.206;2023-12-29T08:26:45;31.65;;;15.13;;
76194;SDS011;64964;48.694;21.206;2023-12-29T08:29:11;27.90;;;14.40;;
76194;SDS011;64964;48.694;21.206;2023-12-29T08:31:37;28.35;;;12.60;;
76194;SDS011;64964;48.694;21.206;2023-12-29T08:34:03;28.57;;;13.57;;
76194;SDS011;64964;48.694;21.206;2023-12-29T08:36:28;22.40;;;10.93;;
76194;SDS011;64964;48.694;21.206;2023-12-29T08:38:54;23.60;;;11.07;;
76194;SDS011;64964;48.694;21.206;2023-12-29T08:41:19;27.03;;;12.87;;
76194;SDS011;64964;48.694;21.206;2023-12-29T08:43:45;28.73;;;14.10;;
76194;SDS011;64964;48.694;21.206;2023-12-29T08:46:10;26.20;;;12.23;;
76194;SDS011;64964;48.694;21.206;2023-12-29T08:48:35;27.50;;;12.27;;
76194;SDS011;64964;48.694;21.206;2023-12-29T08:51:01;29.23;;;12.73;;
76194;SDS011;64964;48.694;21.206;2023-12-29T08:53:26;26.87;;;11.93;;
76194;SDS011;64964;48.694;21.206;2023-12-29T08:55:52;29.30;;;12.30;;
76194;SDS011;64964;48.694;21.206;2023-12-29T08:58:17;28.73;;;12.52;;
76194;SDS011;64964;48.694;21.206;2023-12-29T09:00:42;25.90;;;12.30;;
76194;SDS011;64964;48.694;21.206;2023-12-29T09:03:08;29.80;;;12.43;;
76194;SDS011;64964;48.694;21.206;2023-12-29T09:05:33;28.93;;;12.50;;
76194;SDS011;64964;48.694;21.206;2023-12-29T09:07:59;31.02;;;12.50;;
76194;SDS011;64964;48.694;21.206;2023-12-29T09:10:24;27.80;;;11.83;;
76194;SDS011;64964;48.694;21.206;2023-12-29T09:12:50;24.13;;;12.10;;
76194;SDS011;64964;48.694;21.206;2023-12-29T09:15:15;32.08;;;12.70;;
76194;SDS011;64964;48.694;21.206;2023-12-29T09:17:41;31.30;;;12.50;;
76194;SDS011;64964;48.694;21.206;2023-12-29T09:20:06;23.73;;;11.20;;
76194;SDS011;64964;48.694;21.206;2023-12-29T09:22:35;28.80;;;12.45;;
76194;SDS011;64964;48.694;21.206;2023-12-29T09:25:00;26.90;;;12.87;;
76194;SDS011;64964;48.694;21.206;2023-12-29T09:27:26;28.13;;;11.82;;
76194;SDS011;64964;48.694;21.206;2023-12-29T09:29:51;27.37;;;12.27;;
76194;SDS011;64964;48.694;21.206;2023-12-29T09:32:16;29.37;;;11.83;;
76194;SDS011;64964;48.694;21.206;2023-12-29T09:34:42;26.17;;;10.30;;
76194;SDS011;64964;48.694;21.206;2023-12-29T09:37:07;26.43;;;11.53;;
76194;SDS011;64964;48.694;21.206;2023-12-29T09:39:33;27.70;;;12.25;;
76194;SDS011;64964;48.694;21.206;2023-12-29T09:41:58;25.50;;;11.30;;
76194;SDS011;64964;48.694;21.206;2023-12-29T09:44:27;25.98;;;11.40;;
76194;SDS011;64964;48.694;21.206;2023-12-29T09:46:55;24.10;;;11.18;;
76194;SDS011;64964;48.694;21.206;2023-12-29T09:49:31;23.52;;;11.48;;
76194;SDS011;64964;48.694;21.206;2023-12-29T09:52:02;21.42;;;10.18;;
76194;SDS011;64964;48.694;21.206;2023-12-29T09:54:29;23.90;;;10.87;;
76194;SDS011;64964;48.694;21.206;2023-12-29T09:56:56;22.20;;;11.25;;
76194;SDS011;64964;48.694;21.206;2023-12-29T09:59:21;24.55;;;12.00;;
76194;SDS011;64964;48.694;21.206;2023-12-29T10:01:48;25.27;;;10.23;;
76194;SDS011;64964;48.694;21.206;2023-12-29T10:04:16;26.65;;;12.05;;
76194;SDS011;64964;48.694;21.206;2023-12-29T10:06:43;23.63;;;9.20;;
76194;SDS011;64964;48.694;21.206;2023-12-29T10:09:12;21.17;;;10.02;;
76194;SDS011;64964;48.694;21.206;2023-12-29T10:11:39;17.00;;;8.10;;
76194;SDS011;64964;48.694;21.206;2023-12-29T10:14:23;30.33;;;12.30;;
76194;SDS011;64964;48.694;21.206;2023-12-29T10:16:58;23.27;;;10.23;;
76194;SDS011;64964;48.694;21.206;2023-12-29T10:19:40;26.70;;;10.40;;
76194;SDS011;64964;48.694;21.206;2023-12-29T10:22:10;27.67;;;11.68;;
76194;SDS011;64964;48.694;21.206;2023-12-29T10:24:41;20.15;;;9.45;;
76194;SDS011;64964;48.694;21.206;2023-12-29T10:27:08;30.00;;;13.35;;
76194;SDS011;64964;48.694;21.206;2023-12-29T10:29:34;27.50;;;11.90;;
76194;SDS011;64964;48.694;21.206;2023-12-29T10:31:59;18.50;;;8.57;;
76194;SDS011;64964;48.694;21.206;2023-12-29T10:34:25;23.60;;;11.23;;
76194;SDS011;64964;48.694;21.206;2023-12-29T10:36:53;21.65;;;8.32;;
76194;SDS011;64964;48.694;21.206;2023-12-29T10:39:22;25.50;;;11.67;;
76194;SDS011;64964;48.694;21.206;2023-12-29T10:41:49;28.40;;;13.05;;
76194;SDS011;64964;48.694;21.206;2023-12-29T10:44:15;26.90;;;12.13;;
76194;SDS011;64964;48.694;21.206;2023-12-29T10:46:41;27.63;;;11.80;;
76194;SDS011;64964;48.694;21.206;2023-12-29T10:49:07;26.90;;;11.60;;
76194;SDS011;64964;48.694;21.206;2023-12-29T10:51:36;26.80;;;11.30;;
76194;SDS011;64964;48.694;21.206;2023-12-29T10:54:04;17.17;;;9.25;;
76194;SDS011;64964;48.694;21.206;2023-12-29T10:56:31;25.48;;;11.13;;
76194;SDS011;64964;48.694;21.206;2023-12-29T10:59:06;22.98;;;9.93;;
76194;SDS011;64964;48.694;21.206;2023-12-29T11:01:32;24.73;;;11.88;;
76194;SDS011;64964;48.694;21.206;2023-12-29T11:04:02;29.70;;;12.10;;
76194;SDS011;64964;48.694;21.206;2023-12-29T11:06:29;25.85;;;11.25;;
76194;SDS011;64964;48.694;21.206;2023-12-29T11:09:04;13.57;;;6.22;;
76194;SDS011;64964;48.694;21.206;2023-12-29T11:11:30;23.92;;;12.15;;
76194;SDS011;64964;48.694;21.206;2023-12-29T11:13:58;27.90;;;13.25;;
76194;SDS011;64964;48.694;21.206;2023-12-29T11:16:24;26.07;;;12.13;;
76194;SDS011;64964;48.694;21.206;2023-12-29T11:18:51;28.25;;;12.85;;
76194;SDS011;64964;48.694;21.206;2023-12-29T11:21:18;26.40;;;10.85;;
76194;SDS011;64964;48.694;21.206;2023-12-29T11:23:46;32.25;;;12.85;;
76194;SDS011;64964;48.694;21.206;2023-12-29T11:26:12;26.83;;;12.07;;
76194;SDS011;64964;48.694;21.206;2023-12-29T11:28:38;30.92;;;13.73;;
76194;SDS011;64964;48.694;21.206;2023-12-29T11:31:03;31.67;;;15.23;;
76194;SDS011;64964;48.694;21.206;2023-12-29T11:33:30;33.53;;;15.03;;
76194;SDS011;64964;48.694;21.206;2023-12-29T11:36:02;29.88;;;12.88;;
76194;SDS011;64964;48.694;21.206;2023-12-29T11:41:40;24.80;;;11.13;;
76194;SDS011;64964;48.694;21.206;2023-12-29T11:44:27;28.30;;;12.45;;
76194;SDS011;64964;48.694;21.206;2023-12-29T11:46:52;34.93;;;15.53;;
76194;SDS011;64964;48.694;21.206;2023-12-29T11:49:19;37.65;;;15.77;;
76194;SDS011;64964;48.694;21.206;2023-12-29T11:51:48;34.35;;;15.48;;
76194;SDS011;64964;48.694;21.206;2023-12-29T11:56:49;32.53;;;14.53;;
76194;SDS011;64964;48.694;21.206;2023-12-29T12:01:50;31.45;;;14.52;;
76194;SDS011;64964;48.694;21.206;2023-12-29T12:07:15;26.67;;;13.35;;
76194;SDS011;64964;48.694;21.206;2023-12-29T12:09:42;34.95;;;14.98;;
76194;SDS011;64964;48.694;21.206;2023-12-29T12:12:08;29.15;;;13.90;;
76194;SDS011;64964;48.694;21.206;2023-12-29T12:14:44;36.13;;;16.05;;
76194;SDS011;64964;48.694;21.206;2023-12-29T12:17:32;36.07;;;15.73;;
76194;SDS011;64964;48.694;21.206;2023-12-29T12:22:34;34.33;;;14.35;;
76194;SDS011;64964;48.694;21.206;2023-12-29T12:25:00;26.95;;;11.48;;
76194;SDS011;64964;48.694;21.206;2023-12-29T12:27:26;25.03;;;11.73;;
76194;SDS011;64964;48.694;21.206;2023-12-29T12:29:53;29.70;;;12.93;;
76194;SDS011;64964;48.694;21.206;2023-12-29T12:32:22;38.55;;;15.98;;
76194;SDS011;64964;48.694;21.206;2023-12-29T12:34:48;34.00;;;14.23;;
76194;SDS011;64964;48.694;21.206;2023-12-29T12:37:18;30.87;;;14.63;;
76194;SDS011;64964;48.694;21.206;2023-12-29T12:39:47;32.63;;;13.65;;
76194;SDS011;64964;48.694;21.206;2023-12-29T12:42:13;38.63;;;16.43;;
76194;SDS011;64964;48.694;21.206;2023-12-29T12:44:40;36.22;;;19.73;;
76194;SDS011;64964;48.694;21.206;2023-12-29T12:47:07;29.13;;;14.32;;
76194;SDS011;64964;48.694;21.206;2023-12-29T12:49:39;24.85;;;11.98;;
76194;SDS011;64964;48.694;21.206;2023-12-29T12:52:05;33.40;;;15.73;;
76194;SDS011;64964;48.694;21.206;2023-12-29T12:54:30;32.90;;;14.57;;
76194;SDS011;64964;48.694;21.206;2023-12-29T12:56:56;29.60;;;13.87;;
76194;SDS011;64964;48.694;21.206;2023-12-29T12:59:21;34.00;;;15.27;;
76194;SDS011;64964;48.694;21.206;2023-12-29T13:01:47;32.87;;;14.17;;
76194;SDS011;64964;48.694;21.206;2023-12-29T13:04:13;29.70;;;13.73;;
76194;SDS011;64964;48.694;21.206;2023-12-29T13:06:41;32.67;;;13.85;;
76194;SDS011;64964;48.694;21.206;2023-12-29T13:09:11;29.48;;;13.90;;
76194;SDS011;64964;48.694;21.206;2023-12-29T13:11:38;33.67;;;13.75;;
76194;SDS011;64964;48.694;21.206;2023-12-29T13:14:04;30.37;;;13.23;;
76194;SDS011;64964;48.694;21.206;2023-12-29T13:16:36;32.38;;;12.60;;
76194;SDS011;64964;48.694;21.206;2023-12-29T13:19:16;24.88;;;11.55;;
76194;SDS011;64964;48.694;21.206;2023-12-29T13:21:48;26.67;;;11.07;;
76194;SDS011;64964;48.694;21.206;2023-12-29T13:24:16;27.55;;;11.80;;
76194;SDS011;64964;48.694;21.206;2023-12-29T13:26:43;32.07;;;13.47;;
76194;SDS011;64964;48.694;21.206;2023-12-29T13:29:11;30.35;;;13.68;;
76194;SDS011;64964;48.694;21.206;2023-12-29T13:31:37;28.30;;;12.25;;
76194;SDS011;64964;48.694;21.206;2023-12-29T13:34:05;37.47;;;13.77;;
76194;SDS011;64964;48.694;21.206;2023-12-29T13:36:37;30.17;;;13.00;;
76194;SDS011;64964;48.694;21.206;2023-12-29T13:39:08;32.53;;;11.70;;
76194;SDS011;64964;48.694;21.206;2023-12-29T13:41:40;26.77;;;12.77;;
76194;SDS011;64964;48.694;21.206;2023-12-29T13:44:06;30.55;;;12.13;;
76194;SDS011;64964;48.694;21.206;2023-12-29T13:46:33;34.35;;;14.30;;
76194;SDS011;64964;48.694;21.206;2023-12-29T13:48:59;38.40;;;14.13;;
76194;SDS011;64964;48.694;21.206;2023-12-29T13:51:25;35.45;;;14.30;;
76194;SDS011;64964;48.694;21.206;2023-12-29T13:54:00;29.83;;;12.57;;
76194;SDS011;64964;48.694;21.206;2023-12-29T13:56:26;37.73;;;11.47;;
76194;SDS011;64964;48.694;21.206;2023-12-29T13:58:52;21.75;;;10.57;;
76194;SDS011;64964;48.694;21.206;2023-12-29T14:01:18;24.87;;;12.53;;
76194;SDS011;64964;48.694;21.206;2023-12-29T14:03:47;35.92;;;13.68;;
76194;SDS011;64964;48.694;21.206;2023-12-29T14:06:20;32.43;;;14.73;;
76194;SDS011;64964;48.694;21.206;2023-12-29T14:08:51;31.85;;;13.32;;
76194;SDS011;64964;48.694;21.206;2023-12-29T14:11:17;27.15;;;12.13;;
76194;SDS011;64964;48.694;21.206;2023-12-29T14:13:43;29.17;;;13.20;;
76194;SDS011;64964;48.694;21.206;2023-12-29T14:16:09;31.92;;;12.60;;
76194;SDS011;64964;48.694;21.206;2023-12-29T14:21:20;28.87;;;12.60;;
76194;SDS011;64964;48.694;21.206;2023-12-29T14:24:11;26.52;;;13.13;;
76194;SDS011;64964;48.694;21.206;2023-12-29T14:26:39;31.08;;;14.43;;
76194;SDS011;64964;48.694;21.206;2023-12-29T14:29:12;24.58;;;12.23;;